Time;durP1;ratioP1;P1;durP2;ratioP2;P2;SDS_P1;SDS_P2;PMS_P1;PMS_P2;Temp;Humidity;BMP_temperature;BMP_pressure;BME280_temperature;BME280_humidity;BME280_pressure;Samples;Min_cycle;Max_cycle;Signal;HPM_P1;HPM_P2
2020/12/14 00:01:07;;;;;;;;;;;;;;;;;;5012723;28;19968;-61
2020/12/14 00:03:34;;;;;;;;;;;;;;;;;;5014187;28;19926;-63
2020/12/14 00:06:00;;;;;;;;;;;;;;;;;;5011471;28;19925;-63
2020/12/14 00:08:27;;;;;;;;;;;;;;;;;;5007657;28;19932;-61
2020/12/14 00:10:53;;;;;;;;;;;;;;;;;;5012598;28;20008;-61
2020/12/14 00:13:20;;;;;;;;;;;;;;;;;;5012449;28;20008;-61
2020/12/14 00:15:46;;;;;;;;;;;;;;;;;;5015573;28;19925;-64
2020/12/14 00:18:13;;;;;;;;;;;;;;;;;;5011034;28;19926;-62
2020/12/14 00:20:39;;;;;;;;;;;;;;;;;;5010572;28;19947;-63
2020/12/14 00:23:06;;;;;;;;;;;;;;;;;;5010977;28;19926;-62
2020/12/14 00:25:32;;;;;;;;;;;;;;;;;;5016530;28;19925;-61
2020/12/14 00:27:59;;;;;;;;;;;;;;;;;;5011528;28;19925;-63
2020/12/14 00:30:25;;;;;;;;;;;;;;;;;;5011828;28;19932;-63
2020/12/14 00:32:52;;;;;;;;;;;;;;;;;;5012814;28;20394;-61
2020/12/14 00:35:18;;;;;;;;;;;;;;;;;;5011152;28;19932;-62
2020/12/14 00:37:45;;;;;;;;;;;;;;;;;;5011616;28;19926;-62
2020/12/14 00:40:11;;;;;;;;;;;;;;;;;;5010320;28;20016;-62
2020/12/14 00:42:38;;;;;;;;;;;;;;;;;;5011219;28;19926;-62
2020/12/14 00:45:04;;;;;;;;;;;;;;;;;;5015698;28;19948;-63
2020/12/14 00:47:30;;;;;;;;;;;;;;;;;;5012404;28;19925;-61
2020/12/14 00:49:57;;;;;;;;;;;;;;;;;;5007908;28;20390;-63
2020/12/14 00:52:23;;;;;;;;;;;;;;;;;;5019174;28;19931;-61
2020/12/14 00:54:50;;;;;;;;;;;;;;;;;;5020519;28;20373;-61
2020/12/14 00:57:16;;;;;;;;;;;;;;;;;;5014613;28;19925;-63
2020/12/14 00:59:43;;;;;;;;;;;;;;;;;;5015751;28;19926;-63
2020/12/14 01:02:09;;;;;;;;;;;;;;;;;;5016342;28;20000;-62
2020/12/14 01:04:36;;;;;;;;;;;;;;;;;;5018776;28;19926;-62
2020/12/14 01:07:02;;;;;;;;;;;;;;;;;;5016341;28;19926;-62
2020/12/14 01:09:29;;;;;;;;;;;;;;;;;;5015470;28;19932;-61
2020/12/14 01:11:55;;;;;;;;;;;;;;;;;;5015299;28;20356;-63
2020/12/14 01:14:22;;;;;;;;;;;;;;;;;;5013431;28;19926;-62
2020/12/14 01:16:48;;;;;;;;;;;;;;;;;;5016529;28;19940;-62
2020/12/14 01:19:15;;;;;;;;;;;;;;;;;;5015237;28;19926;-65
2020/12/14 01:21:41;;;;;;;;;;;;;;;;;;5014788;28;19940;-63
2020/12/14 01:24:08;;;;;;;;;;;;;;;;;;5013705;28;20264;-62
2020/12/14 01:26:34;;;;;;;;;;;;;;;;;;5015153;28;19929;-61
2020/12/14 01:29:01;;;;;;;;;;;;;;;;;;5014460;28;20397;-63
2020/12/14 01:31:27;;;;;;;;;;;;;;;;;;5016005;28;19941;-63
2020/12/14 01:33:54;;;;;;;;;;;;;;;;;;5014644;28;19925;-63
2020/12/14 01:36:20;;;;;;;;;;;;;;;;;;5014479;28;19963;-62
2020/12/14 01:38:47;;;;;;;;;;;;;;;;;;5013984;28;19932;-61
2020/12/14 01:41:13;;;;;;;;;;;;;;;;;;5013902;28;20279;-62
2020/12/14 01:43:40;;;;;;;;;;;;;;;;;;5014452;28;19932;-62
2020/12/14 01:46:06;;;;;;;;;;;;;;;;;;5012193;28;20389;-63
2020/12/14 01:48:33;;;;;;;;;;;;;;;;;;5013961;28;19925;-62
2020/12/14 01:50:59;;;;;;;;;;;;;;;;;;5014472;28;19932;-63
2020/12/14 01:53:26;;;;;;;;;;;;;;;;;;5013750;28;19929;-61
2020/12/14 01:55:52;;;;;;;;;;;;;;;;;;5012205;28;19929;-65
2020/12/14 01:58:19;;;;;;;;;;;;;;;;;;5011829;28;20452;-62
2020/12/14 02:00:45;;;;;;;;;;;;;;;;;;5014929;28;19926;-62
2020/12/14 02:03:12;;;;;;;;;;;;;;;;;;5014382;28;19925;-62
2020/12/14 02:05:38;;;;;;;;;;;;;;;;;;5015058;28;20309;-63
2020/12/14 02:08:05;;;;;;;;;;;;;;;;;;5021426;28;19945;-60
2020/12/14 02:10:32;;;;;;;;;;;;;;;;;;5023200;28;20003;-63
2020/12/14 02:12:58;;;;;;;;;;;;;;;;;;5013862;28;19932;-63
2020/12/14 02:15:25;;;;;;;;;;;;;;;;;;5014277;28;19926;-63
2020/12/14 02:17:51;;;;;;;;;;;;;;;;;;5010655;28;19929;-63
2020/12/14 02:20:17;;;;;;;;;;;;;;;;;;5022725;28;20378;-63
2020/12/14 02:22:44;;;;;;;;;;;;;;;;;;5018866;28;19925;-63
2020/12/14 02:25:10;;;;;;;;;;;;;;;;;;5019648;28;19932;-63
2020/12/14 02:27:37;;;;;;;;;;;;;;;;;;5009118;28;19968;-62
2020/12/14 02:30:03;;;;;;;;;;;;;;;;;;5017939;28;19925;-62
2020/12/14 02:32:30;;;;;;;;;;;;;;;;;;5018045;28;20293;-61
2020/12/14 02:34:56;;;;;;;;;;;;;;;;;;5020807;28;19925;-61
2020/12/14 02:37:23;;;;;;;;;;;;;;;;;;5016104;28;19925;-62
2020/12/14 02:39:49;;;;;;;;;;;;;;;;;;5016653;28;19947;-60
2020/12/14 02:42:16;;;;;;;;;;;;;;;;;;5022608;28;19925;-62
2020/12/14 02:44:42;;;;;;;;;;;;;;;;;;5013896;28;20012;-59
2020/12/14 02:47:09;;;;;;;;;;;;;;;;;;5012374;28;19925;-62
2020/12/14 02:49:35;;;;;;;;;;;;;;;;;;5013464;28;20386;-62
2020/12/14 02:52:02;;;;;;;;;;;;;;;;;;5012450;28;19925;-62
2020/12/14 02:54:28;;;;;;;;;;;;;;;;;;5006688;28;20301;-60
2020/12/14 02:56:55;;;;;;;;;;;;;;;;;;5023168;28;19956;-59
2020/12/14 02:59:21;;;;;;;;;;;;;;;;;;5013330;28;20309;-66
2020/12/14 03:01:48;;;;;;;;;;;;;;;;;;5014273;28;19925;-63
2020/12/14 03:04:14;;;;;;;;;;;;;;;;;;5012424;28;19929;-61
2020/12/14 03:06:41;;;;;;;;;;;;;;;;;;5012830;28;19953;-62
2020/12/14 03:09:07;;;;;;;;;;;;;;;;;;5016830;28;20302;-62
2020/12/14 03:11:34;;;;;;;;;;;;;;;;;;5012067;28;19925;-63
2020/12/14 03:14:00;;;;;;;;;;;;;;;;;;5012222;28;19931;-62
2020/12/14 03:16:26;;;;;;;;;;;;;;;;;;5018855;28;20317;-61
2020/12/14 03:18:53;;;;;;;;;;;;;;;;;;5011989;28;19932;-59
2020/12/14 03:21:19;;;;;;;;;;;;;;;;;;5012694;28;19926;-62
2020/12/14 03:23:46;;;;;;;;;;;;;;;;;;5011924;28;19932;-61
2020/12/14 03:26:12;;;;;;;;;;;;;;;;;;5015491;28;19929;-61
2020/12/14 03:28:39;;;;;;;;;;;;;;;;;;5012380;28;19947;-62
2020/12/14 03:31:05;;;;;;;;;;;;;;;;;;5013258;28;19933;-62
2020/12/14 03:33:32;;;;;;;;;;;;;;;;;;5012143;28;19931;-63
2020/12/14 03:35:59;;;;;;;;;;;;;;;;;;5010139;28;19930;-61
2020/12/14 03:38:25;;;;;;;;;;;;;;;;;;5013042;28;19932;-63
2020/12/14 03:40:52;;;;;;;;;;;;;;;;;;5012727;28;19926;-61
2020/12/14 03:43:18;;;;;;;;;;;;;;;;;;5012044;28;20409;-61
2020/12/14 03:45:44;;;;;;;;;;;;;;;;;;5012996;28;19926;-61
2020/12/14 03:48:11;;;;;;;;;;;;;;;;;;5018757;28;19937;-61
2020/12/14 03:50:42;;;;;;;;;;;;;;;;;;5013516;28;19947;-61
2020/12/14 03:53:09;;;;;;;;;;;;;;;;;;5012511;28;19932;-61
2020/12/14 03:55:35;;;;;;;;;;;;;;;;;;5012713;28;19931;-62
2020/12/14 03:58:02;;;;;;;;;;;;;;;;;;5017713;28;19925;-61
2020/12/14 04:00:28;;;;;;;;;;;;;;;;;;5012907;28;19933;-62
2020/12/14 04:02:55;;;;;;;;;;;;;;;;;;5011873;28;19925;-63
2020/12/14 04:05:21;;;;;;;;;;;;;;;;;;5010434;28;19952;-62
2020/12/14 04:07:48;;;;;;;;;;;;;;;;;;5011905;28;19932;-61
2020/12/14 04:10:14;;;;;;;;;;;;;;;;;;5011941;28;19925;-62
2020/12/14 04:12:41;;;;;;;;;;;;;;;;;;5012214;28;19936;-62
2020/12/14 04:15:08;;;;;;;;;;;;;;;;;;5012097;28;19925;-63
2020/12/14 04:17:34;;;;;;;;;;;;;;;;;;5011791;28;19925;-63
2020/12/14 04:20:01;;;;;;;;;;;;;;;;;;5012132;28;20331;-62
2020/12/14 04:22:27;;;;;;;;;;;;;;;;;;5011506;28;19926;-61
2020/12/14 04:24:54;;;;;;;;;;;;;;;;;;5005319;28;20309;-63
2020/12/14 04:27:20;;;;;;;;;;;;;;;;;;5005964;28;19932;-61
2020/12/14 04:29:47;;;;;;;;;;;;;;;;;;5012224;28;19965;-61
2020/12/14 04:32:13;;;;;;;;;;;;;;;;;;5010773;28;19932;-62
2020/12/14 04:34:40;;;;;;;;;;;;;;;;;;5012529;28;20303;-63
2020/12/14 04:37:06;;;;;;;;;;;;;;;;;;5011436;28;19926;-61
2020/12/14 04:39:33;;;;;;;;;;;;;;;;;;5011888;28;20384;-61
2020/12/14 04:41:59;;;;;;;;;;;;;;;;;;5012694;28;19925;-60
2020/12/14 04:44:25;;;;;;;;;;;;;;;;;;5011258;28;19970;-61
2020/12/14 04:46:52;;;;;;;;;;;;;;;;;;5011262;28;19925;-62
2020/12/14 04:49:18;;;;;;;;;;;;;;;;;;5012857;28;19929;-61
2020/12/14 04:51:45;;;;;;;;;;;;;;;;;;5011907;28;19926;-60
2020/12/14 04:54:11;;;;;;;;;;;;;;;;;;5024958;23;20032;-63
2020/12/14 04:56:38;;;;;;;;;;;;;;;;;;5001444;28;19936;-66
2020/12/14 04:59:05;;;;;;;;;;;;;;;;;;5006995;28;19925;-66
2020/12/14 05:01:31;;;;;;;;;;;;;;;;;;5013070;28;19940;-65
2020/12/14 05:03:58;;;;;;;;;;;;;;;;;;5011027;28;19925;-65
2020/12/14 05:06:24;;;;;;;;;;;;;;;;;;5010952;28;19932;-65
2020/12/14 05:08:51;;;;;;;;;;;;;;;;;;5012242;28;20292;-65
2020/12/14 05:11:17;;;;;;;;;;;;;;;;;;5011850;28;19931;-65
2020/12/14 05:13:43;;;;;;;;;;;;;;;;;;5008884;28;20228;-67
2020/12/14 05:16:10;;;;;;;;;;;;;;;;;;5012165;28;19925;-66
2020/12/14 05:18:36;;;;;;;;;;;;;;;;;;5011022;28;19930;-65
2020/12/14 05:21:03;;;;;;;;;;;;;;;;;;5011413;28;19948;-66
2020/12/14 05:23:29;;;;;;;;;;;;;;;;;;5011070;28;19925;-65
2020/12/14 05:25:56;;;;;;;;;;;;;;;;;;5011630;28;20275;-65
2020/12/14 05:28:22;;;;;;;;;;;;;;;;;;5010420;28;19933;-65
2020/12/14 05:30:49;;;;;;;;;;;;;;;;;;5011483;28;20389;-67
2020/12/14 05:33:15;;;;;;;;;;;;;;;;;;5011086;28;19932;-64
2020/12/14 05:35:42;;;;;;;;;;;;;;;;;;5011390;28;20369;-64
2020/12/14 05:38:08;;;;;;;;;;;;;;;;;;4999878;28;19933;-65
2020/12/14 05:40:35;;;;;;;;;;;;;;;;;;5016005;28;19926;-66
2020/12/14 05:43:01;;;;;;;;;;;;;;;;;;5014204;28;19956;-66
2020/12/14 05:45:28;;;;;;;;;;;;;;;;;;5014484;28;19926;-66
2020/12/14 05:47:54;;;;;;;;;;;;;;;;;;5015230;28;19949;-65
2020/12/14 05:50:21;;;;;;;;;;;;;;;;;;5014942;28;19926;-65
2020/12/14 05:52:47;;;;;;;;;;;;;;;;;;5008872;28;20394;-65
2020/12/14 05:55:14;;;;;;;;;;;;;;;;;;5013505;28;19930;-67
2020/12/14 05:57:40;;;;;;;;;;;;;;;;;;5014034;28;20361;-66
2020/12/14 06:00:07;;;;;;;;;;;;;;;;;;5014014;28;19925;-65
2020/12/14 06:02:33;;;;;;;;;;;;;;;;;;5009986;28;19929;-65
2020/12/14 06:05:02;;;;;;;;;;;;;;;;;;5006426;28;19969;-66
2020/12/14 06:07:29;;;;;;;;;;;;;;;;;;5011633;28;20358;-66
2020/12/14 06:09:58;;;;;;;;;;;;;;;;;;5012725;28;19925;-65
2020/12/14 06:12:25;;;;;;;;;;;;;;;;;;5009248;28;20373;-65
2020/12/14 06:14:51;;;;;;;;;;;;;;;;;;5010983;28;19926;-66
2020/12/14 06:17:18;;;;;;;;;;;;;;;;;;5010163;28;20377;-66
2020/12/14 06:19:44;;;;;;;;;;;;;;;;;;5009175;28;19935;-63
2020/12/14 06:22:11;;;;;;;;;;;;;;;;;;5007420;28;19930;-66
2020/12/14 06:24:37;;;;;;;;;;;;;;;;;;5010995;28;19926;-66
2020/12/14 06:27:04;;;;;;;;;;;;;;;;;;5013234;28;19932;-66
2020/12/14 06:29:30;;;;;;;;;;;;;;;;;;5010017;28;19965;-66
2020/12/14 06:31:57;;;;;;;;;;;;;;;;;;5007562;28;19992;-65
2020/12/14 06:34:23;;;;;;;;;;;;;;;;;;5012355;28;19925;-66
2020/12/14 06:36:50;;;;;;;;;;;;;;;;;;5013125;28;20359;-65
2020/12/14 06:39:16;;;;;;;;;;;;;;;;;;5007373;28;19926;-66
2020/12/14 06:41:43;;;;;;;;;;;;;;;;;;5011262;28;19932;-66
2020/12/14 06:44:12;;;;;;;;;;;;;;;;;;5006845;28;19931;-65
2020/12/14 06:46:39;;;;;;;;;;;;;;;;;;5006041;28;20021;-65
2020/12/14 06:49:09;;;;;;;;;;;;;;;;;;5009255;28;19968;-65
2020/12/14 06:51:35;;;;;;;;;;;;;;;;;;5013143;28;20040;-66
2020/12/14 06:54:02;;;;;;;;;;;;;;;;;;5011243;28;20385;-66
2020/12/14 06:56:28;;;;;;;;;;;;;;;;;;5010258;28;19939;-65
2020/12/14 06:58:55;;;;;;;;;;;;;;;;;;5011663;28;19972;-65
2020/12/14 07:01:21;;;;;;;;;;;;;;;;;;5011847;28;20300;-68
2020/12/14 07:03:48;;;;;;;;;;;;;;;;;;5011293;28;20027;-66
2020/12/14 07:06:14;;;;;;;;;;;;;;;;;;5012453;28;19973;-66
2020/12/14 07:08:41;;;;;;;;;;;;;;;;;;5011815;28;19932;-66
2020/12/14 07:11:07;;;;;;;;;;;;;;;;;;5011322;28;19926;-68
2020/12/14 07:13:34;;;;;;;;;;;;;;;;;;5010301;28;20374;-66
2020/12/14 07:16:00;;;;;;;;;;;;;;;;;;5007120;28;19936;-67
2020/12/14 07:18:27;;;;;;;;;;;;;;;;;;5009183;28;19925;-68
2020/12/14 07:20:53;;;;;;;;;;;;;;;;;;5011576;28;20020;-67
2020/12/14 07:23:20;;;;;;;;;;;;;;;;;;5012591;28;19932;-64
2020/12/14 07:25:47;;;;;;;;;;;;;;;;;;5007864;28;19972;-68
2020/12/14 07:28:13;;;;;;;;;;;;;;;;;;5006667;28;19933;-68
2020/12/14 07:30:40;;;;;;;;;;;;;;;;;;5009233;28;20012;-66
2020/12/14 07:33:06;;;;;;;;;;;;;;;;;;5011735;28;19977;-68
2020/12/14 07:35:33;;;;;;;;;;;;;;;;;;5011276;28;19925;-67
2020/12/14 07:37:59;;;;;;;;;;;;;;;;;;5012314;28;19932;-67
2020/12/14 07:40:26;;;;;;;;;;;;;;;;;;5011914;28;19933;-67
2020/12/14 07:42:52;;;;;;;;;;;;;;;;;;5011285;28;19951;-68
2020/12/14 07:45:19;;;;;;;;;;;;;;;;;;5008407;28;20410;-67
2020/12/14 07:47:45;;;;;;;;;;;;;;;;;;5011186;28;19931;-67
2020/12/14 07:50:12;;;;;;;;;;;;;;;;;;5004232;28;19929;-67
2020/12/14 07:52:38;;;;;;;;;;;;;;;;;;5011750;28;20373;-66
2020/12/14 07:55:05;;;;;;;;;;;;;;;;;;5009081;28;19925;-68
2020/12/14 07:57:32;;;;;;;;;;;;;;;;;;5010086;28;19925;-65
2020/12/14 07:59:59;;;;;;;;;;;;;;;;;;5009561;28;20008;-66
2020/12/14 08:02:25;;;;;;;;;;;;;;;;;;5006704;28;20024;-65
2020/12/14 08:04:52;;;;;;;;;;;;;;;;;;5008826;28;20368;-68
2020/12/14 08:07:18;;;;;;;;;;;;;;;;;;5009920;28;19930;-65
2020/12/14 08:09:45;;;;;;;;;;;;;;;;;;4999060;28;20281;-69
2020/12/14 08:12:11;;;;;;;;;;;;;;;;;;5009337;28;19929;-66
2020/12/14 08:14:38;;;;;;;;;;;;;;;;;;5009321;28;19968;-67
2020/12/14 08:17:04;;;;;;;;;;;;;;;;;;5009853;28;20016;-69
2020/12/14 08:19:31;;;;;;;;;;;;;;;;;;5009126;28;20386;-69
2020/12/14 08:21:57;;;;;;;;;;;;;;;;;;5009187;28;20017;-67
2020/12/14 08:24:24;;;;;;;;;;;;;;;;;;5010075;28;20271;-66
2020/12/14 08:26:50;;;;;;;;;;;;;;;;;;5003019;28;19925;-67
2020/12/14 08:29:17;;;;;;;;;;;;;;;;;;5008346;28;19925;-67
2020/12/14 08:31:44;;;;;;;;;;;;;;;;;;5008503;28;20020;-67
2020/12/14 08:34:12;;;;;;;;;;;;;;;;;;5008393;28;19926;-66
2020/12/14 08:36:39;;;;;;;;;;;;;;;;;;5007150;28;19938;-66
2020/12/14 08:39:05;;;;;;;;;;;;;;;;;;5007383;28;19933;-66
2020/12/14 08:41:31;;;;;;;;;;;;;;;;;;5005349;28;19935;-66
2020/12/14 08:43:58;;;;;;;;;;;;;;;;;;5000456;28;19932;-66
2020/12/14 08:46:24;;;;;;;;;;;;;;;;;;5011062;28;19931;-68
2020/12/14 08:48:51;;;;;;;;;;;;;;;;;;5009607;28;19926;-65
2020/12/14 08:51:17;;;;;;;;;;;;;;;;;;5008359;28;19925;-67
2020/12/14 08:53:44;;;;;;;;;;;;;;;;;;5010192;28;19925;-67
2020/12/14 08:56:11;;;;;;;;;;;;;;;;;;5006250;28;19930;-69
2020/12/14 08:58:37;;;;;;;;;;;;;;;;;;5008367;28;19969;-69
2020/12/14 09:01:04;;;;;;;;;;;;;;;;;;5008694;28;19926;-69
2020/12/14 09:03:30;;;;;;;;;;;;;;;;;;5008454;28;19925;-69
2020/12/14 09:05:56;;;;;;;;;;;;;;;;;;5009279;28;20389;-69
2020/12/14 09:08:23;;;;;;;;;;;;;;;;;;5010611;28;20008;-69
2020/12/14 09:10:49;;;;;;;;;;;;;;;;;;5009069;28;19948;-67
2020/12/14 09:13:16;;;;;;;;;;;;;;;;;;5010142;28;19925;-67
2020/12/14 09:15:42;;;;;;;;;;;;;;;;;;5011218;28;19992;-66
2020/12/14 09:18:09;;;;;;;;;;;;;;;;;;5012187;28;20374;-70
2020/12/14 09:20:35;;;;;;;;;;;;;;;;;;5015394;28;20357;-68
2020/12/14 09:23:02;;;;;;;;;;;;;;;;;;5010833;28;19930;-66
2020/12/14 09:25:28;;;;;;;;;;;;;;;;;;4999593;28;19926;-66
2020/12/14 09:27:55;;;;;;;;;;;;;;;;;;5012587;28;19930;-66
2020/12/14 09:30:21;;;;;;;;;;;;;;;;;;5014134;28;20424;-63
2020/12/14 09:32:47;;;;;;;;;;;;;;;;;;5008165;28;19932;-65
2020/12/14 09:35:14;;;;;;;;;;;;;;;;;;5009255;28;20019;-65
2020/12/14 09:37:40;;;;;;;;;;;;;;;;;;5012639;28;20313;-67
2020/12/14 09:40:07;;;;;;;;;;;;;;;;;;5011441;28;20012;-66
2020/12/14 09:42:33;;;;;;;;;;;;;;;;;;5013447;28;19972;-65
2020/12/14 09:45:00;;;;;;;;;;;;;;;;;;5012934;28;19926;-64
2020/12/14 09:47:26;;;;;;;;;;;;;;;;;;5004581;28;19925;-65
2020/12/14 09:49:53;;;;;;;;;;;;;;;;;;5008924;28;19926;-67
2020/12/14 09:52:19;;;;;;;;;;;;;;;;;;5013749;28;19931;-67
2020/12/14 09:54:46;;;;;;;;;;;;;;;;;;5009421;28;20297;-66
2020/12/14 09:57:12;;;;;;;;;;;;;;;;;;5011691;28;19926;-64
2020/12/14 09:59:39;;;;;;;;;;;;;;;;;;5006474;28;20020;-64
2020/12/14 10:02:05;;;;;;;;;;;;;;;;;;5011615;28;19933;-63
2020/12/14 10:04:32;;;;;;;;;;;;;;;;;;5010302;28;19940;-65
2020/12/14 10:06:58;;;;;;;;;;;;;;;;;;5008769;28;20535;-65
2020/12/14 10:09:25;;;;;;;;;;;;;;;;;;5008244;28;19934;-65
2020/12/14 10:11:52;;;;;;;;;;;;;;;;;;5005701;28;19933;-67
2020/12/14 10:14:18;;;;;;;;;;;;;;;;;;5008825;28;19989;-66
2020/12/14 10:16:45;;;;;;;;;;;;;;;;;;5009811;28;19936;-66
2020/12/14 10:19:11;;;;;;;;;;;;;;;;;;5008664;28;19940;-66
2020/12/14 10:21:38;;;;;;;;;;;;;;;;;;5012636;28;19956;-67
2020/12/14 10:24:05;;;;;;;;;;;;;;;;;;5011924;28;20289;-66
2020/12/14 10:26:31;;;;;;;;;;;;;;;;;;5008409;28;19984;-66
2020/12/14 10:28:58;;;;;;;;;;;;;;;;;;5004558;28;19926;-68
2020/12/14 10:31:24;;;;;;;;;;;;;;;;;;5011313;28;19932;-64
2020/12/14 10:33:51;;;;;;;;;;;;;;;;;;5007451;28;19926;-66
2020/12/14 10:36:19;;;;;;;;;;;;;;;;;;5012598;28;19961;-66
2020/12/14 10:38:46;;;;;;;;;;;;;;;;;;5012054;28;19933;-67
2020/12/14 10:41:12;;;;;;;;;;;;;;;;;;5005316;28;20332;-67
2020/12/14 10:43:38;;;;;;;;;;;;;;;;;;5007725;28;19925;-64
2020/12/14 10:46:05;;;;;;;;;;;;;;;;;;5012752;28;20385;-66
2020/12/14 10:48:31;;;;;;;;;;;;;;;;;;5010711;28;19925;-66
2020/12/14 10:50:58;;;;;;;;;;;;;;;;;;5011893;28;20357;-65
2020/12/14 10:53:24;;;;;;;;;;;;;;;;;;5010115;28;19925;-66
2020/12/14 10:55:51;;;;;;;;;;;;;;;;;;5043517;23;20351;-62
2020/12/14 10:58:17;;;;;;;;;;;;;;;;;;5030142;28;19931;-64
2020/12/14 11:00:44;;;;;;;;;;;;;;;;;;5026932;28;19937;-65
2020/12/14 11:03:10;;;;;;;;;;;;;;;;;;5024912;28;19933;-63
2020/12/14 11:05:37;;;;;;;;;;;;;;;;;;5025322;28;20039;-63
2020/12/14 11:08:03;;;;;;;;;;;;;;;;;;5024546;28;19933;-67
2020/12/14 11:10:30;;;;;;;;;;;;;;;;;;5021422;28;19940;-64
2020/12/14 11:12:56;;;;;;;;;;;;;;;;;;5022393;28;20274;-64
2020/12/14 11:15:23;;;;;;;;;;;;;;;;;;5020357;28;19933;-63
2020/12/14 11:17:49;;;;;;;;;;;;;;;;;;5023816;28;19933;-63
2020/12/14 11:20:16;;;;;;;;;;;;;;;;;;5022991;28;20606;-63
2020/12/14 11:22:42;;;;;;;;;;;;;;;;;;5024476;28;20381;-63
2020/12/14 11:25:10;;;;;;;;;;;;;;;;;;5024100;28;19939;-62
2020/12/14 11:27:36;;;;;;;;;;;;;;;;;;5023926;28;19937;-62
2020/12/14 11:30:03;;;;;;;;;;;;;;;;;;5023763;28;19939;-63
2020/12/14 11:32:29;;;;;;;;;;;;;;;;;;5022868;28;19933;-64
2020/12/14 11:34:56;;;;;;;;;;;;;;;;;;5023092;28;20306;-63
2020/12/14 11:37:22;;;;;;;;;;;;;;;;;;5023709;28;19933;-63
2020/12/14 11:39:49;;;;;;;;;;;;;;;;;;5022256;28;19929;-63
2020/12/14 11:42:15;;;;;;;;;;;;;;;;;;5022665;28;19933;-63
2020/12/14 11:44:42;;;;;;;;;;;;;;;;;;5022695;28;19956;-63
2020/12/14 11:47:08;;;;;;;;;;;;;;;;;;5017743;28;19940;-65
2020/12/14 11:49:35;;;;;;;;;;;;;;;;;;5022729;28;19929;-63
2020/12/14 11:52:01;;;;;;;;;;;;;;;;;;5020690;28;20020;-65
2020/12/14 11:54:28;;;;;;;;;;;;;;;;;;5022723;28;19933;-61
2020/12/14 11:56:54;;;;;;;;;;;;;;;;;;5023404;28;19925;-63
2020/12/14 11:59:21;;;;;;;;;;;;;;;;;;5022330;28;19933;-65
2020/12/14 12:01:47;;;;;;;;;;;;;;;;;;5023313;28;19940;-63
2020/12/14 12:04:14;;;;;;;;;;;;;;;;;;5021372;28;19936;-64
2020/12/14 12:06:40;;;;;;;;;;;;;;;;;;5023591;28;19933;-63
2020/12/14 12:09:07;;;;;;;;;;;;;;;;;;5022897;28;19952;-64
2020/12/14 12:11:35;;;;;;;;;;;;;;;;;;5023876;28;19940;-63
2020/12/14 12:14:01;;;;;;;;;;;;;;;;;;5022533;28;19933;-66
2020/12/14 12:16:28;;;;;;;;;;;;;;;;;;5024056;28;19940;-64
2020/12/14 12:18:54;;;;;;;;;;;;;;;;;;5020951;28;19940;-63
2020/12/14 12:21:21;;;;;;;;;;;;;;;;;;5020417;28;20320;-64
2020/12/14 12:23:48;;;;;;;;;;;;;;;;;;5023035;28;19925;-63
2020/12/14 12:26:14;;;;;;;;;;;;;;;;;;5022708;28;19933;-64
2020/12/14 12:28:41;;;;;;;;;;;;;;;;;;5022294;28;19933;-63
2020/12/14 12:31:08;;;;;;;;;;;;;;;;;;5028634;28;19933;-64
2020/12/14 12:33:34;;;;;;;;;;;;;;;;;;5030062;28;20411;-64
2020/12/14 12:36:01;;;;;;;;;;;;;;;;;;5027740;28;19931;-60
2020/12/14 12:38:27;;;;;;;;;;;;;;;;;;5027845;28;19935;-63
2020/12/14 12:40:54;;;;;;;;;;;;;;;;;;5028962;28;19925;-62
2020/12/14 12:43:20;;;;;;;;;;;;;;;;;;5028719;28;20017;-62
2020/12/14 12:45:49;;;;;;;;;;;;;;;;;;5030670;28;20337;-63
2020/12/14 12:48:15;;;;;;;;;;;;;;;;;;5033895;28;19925;-61
2020/12/14 12:50:53;;;;;;;;;;;;;;;;;;5034636;28;20020;-62
2020/12/14 12:53:19;;;;;;;;;;;;;;;;;;5033414;28;19925;-65
2020/12/14 12:55:46;;;;;;;;;;;;;;;;;;5027683;28;19925;-64
2020/12/14 12:58:12;;;;;;;;;;;;;;;;;;5016907;28;20437;-63
2020/12/14 13:00:39;;;;;;;;;;;;;;;;;;5032250;28;19925;-62
2020/12/14 13:03:05;;;;;;;;;;;;;;;;;;5031680;28;20349;-62
2020/12/14 13:05:32;;;;;;;;;;;;;;;;;;5032372;28;19932;-63
2020/12/14 13:07:58;;;;;;;;;;;;;;;;;;5034233;28;19928;-62
2020/12/14 13:10:25;;;;;;;;;;;;;;;;;;5030909;28;19939;-60
2020/12/14 13:12:51;;;;;;;;;;;;;;;;;;5033481;28;19947;-63
2020/12/14 13:15:18;;;;;;;;;;;;;;;;;;5033605;28;19932;-62
2020/12/14 13:17:44;;;;;;;;;;;;;;;;;;5035616;28;20286;-59
2020/12/14 13:20:10;;;;;;;;;;;;;;;;;;5032593;28;19932;-61
2020/12/14 13:22:37;;;;;;;;;;;;;;;;;;5033107;28;20433;-62
2020/12/14 13:25:04;;;;;;;;;;;;;;;;;;5033561;28;19925;-62
2020/12/14 13:27:31;;;;;;;;;;;;;;;;;;5034087;28;20445;-59
2020/12/14 13:29:57;;;;;;;;;;;;;;;;;;5030800;28;19925;-60
2020/12/14 13:32:24;;;;;;;;;;;;;;;;;;5029881;28;19925;-63
2020/12/14 13:34:50;;;;;;;;;;;;;;;;;;5029855;28;19925;-63
2020/12/14 13:37:17;;;;;;;;;;;;;;;;;;5024908;28;20397;-60
2020/12/14 13:39:43;;;;;;;;;;;;;;;;;;5026421;28;19933;-60
2020/12/14 13:42:10;;;;;;;;;;;;;;;;;;5031837;28;19929;-63
2020/12/14 13:44:36;;;;;;;;;;;;;;;;;;5032508;28;19971;-63
2020/12/14 13:47:03;;;;;;;;;;;;;;;;;;5030710;28;20288;-62
2020/12/14 13:49:29;;;;;;;;;;;;;;;;;;5031063;28;20415;-62
2020/12/14 13:51:56;;;;;;;;;;;;;;;;;;5036866;28;19925;-62
2020/12/14 13:54:22;;;;;;;;;;;;;;;;;;5032073;28;19988;-63
2020/12/14 13:56:49;;;;;;;;;;;;;;;;;;5033438;28;19925;-62
2020/12/14 13:59:15;;;;;;;;;;;;;;;;;;5030366;28;19924;-64
2020/12/14 14:01:42;;;;;;;;;;;;;;;;;;5032367;28;19948;-64
2020/12/14 14:04:08;;;;;;;;;;;;;;;;;;5023394;28;20296;-63
2020/12/14 14:06:35;;;;;;;;;;;;;;;;;;5033730;28;19945;-62
2020/12/14 14:09:01;;;;;;;;;;;;;;;;;;5041690;28;20406;-63
2020/12/14 14:11:28;;;;;;;;;;;;;;;;;;5033152;28;19925;-61
2020/12/14 14:13:54;;;;;;;;;;;;;;;;;;5014359;28;20395;-62
2020/12/14 14:16:21;;;;;;;;;;;;;;;;;;5032719;28;19933;-64
2020/12/14 14:18:47;;;;;;;;;;;;;;;;;;5033952;28;20373;-63
2020/12/14 14:21:14;;;;;;;;;;;;;;;;;;5028293;28;19932;-64
2020/12/14 14:23:40;;;;;;;;;;;;;;;;;;5031767;28;20304;-63
2020/12/14 14:26:07;;;;;;;;;;;;;;;;;;5033835;28;19925;-62
2020/12/14 14:28:34;;;;;;;;;;;;;;;;;;5031686;28;20003;-62
2020/12/14 14:31:01;;;;;;;;;;;;;;;;;;5030885;28;19925;-62
2020/12/14 14:33:27;;;;;;;;;;;;;;;;;;5029176;28;20444;-64
2020/12/14 14:35:54;;;;;;;;;;;;;;;;;;5030668;28;20012;-61
2020/12/14 14:38:20;;;;;;;;;;;;;;;;;;5032787;28;19955;-63
2020/12/14 14:40:47;;;;;;;;;;;;;;;;;;5032382;28;20015;-59
2020/12/14 14:43:13;;;;;;;;;;;;;;;;;;5034009;28;19933;-58
2020/12/14 14:45:40;;;;;;;;;;;;;;;;;;5032673;28;20323;-62
2020/12/14 14:48:07;;;;;;;;;;;;;;;;;;5032670;28;20328;-63
2020/12/14 14:50:33;;;;;;;;;;;;;;;;;;5031849;28;20044;-63
2020/12/14 14:53:00;;;;;;;;;;;;;;;;;;5031279;28;19978;-57
2020/12/14 14:55:26;;;;;;;;;;;;;;;;;;5031397;28;19939;-64
2020/12/14 14:57:53;;;;;;;;;;;;;;;;;;5032158;28;19925;-62
2020/12/14 15:00:19;;;;;;;;;;;;;;;;;;5029962;28;20368;-62
2020/12/14 15:02:46;;;;;;;;;;;;;;;;;;5031588;28;19940;-62
2020/12/14 15:05:12;;;;;;;;;;;;;;;;;;5027433;28;19925;-62
2020/12/14 15:07:39;;;;;;;;;;;;;;;;;;5029831;28;19933;-62
2020/12/14 15:10:05;;;;;;;;;;;;;;;;;;5025699;28;20427;-63
2020/12/14 15:12:32;;;;;;;;;;;;;;;;;;5024902;28;20021;-61
2020/12/14 15:14:58;;;;;;;;;;;;;;;;;;5027924;28;19925;-61
2020/12/14 15:17:25;;;;;;;;;;;;;;;;;;5028062;28;19936;-63
2020/12/14 15:19:52;;;;;;;;;;;;;;;;;;5017881;28;19976;-60
2020/12/14 15:22:19;;;;;;;;;;;;;;;;;;5028055;28;19933;-62
2020/12/14 15:24:45;;;;;;;;;;;;;;;;;;5027685;28;19943;-62
2020/12/14 15:27:12;;;;;;;;;;;;;;;;;;5031829;28;19933;-64
2020/12/14 15:29:38;;;;;;;;;;;;;;;;;;5031617;28;19929;-62
2020/12/14 15:32:05;;;;;;;;;;;;;;;;;;5030030;28;19925;-64
2020/12/14 15:34:31;;;;;;;;;;;;;;;;;;5027647;28;20012;-61
2020/12/14 15:36:58;;;;;;;;;;;;;;;;;;5018040;28;19925;-63
2020/12/14 15:39:24;;;;;;;;;;;;;;;;;;5018439;28;19930;-65
2020/12/14 15:41:50;;;;;;;;;;;;;;;;;;5032025;28;19931;-62
2020/12/14 15:44:17;;;;;;;;;;;;;;;;;;5029948;28;20019;-62
2020/12/14 15:46:43;;;;;;;;;;;;;;;;;;5029604;28;19925;-64
2020/12/14 15:49:10;;;;;;;;;;;;;;;;;;5021480;28;19926;-62
2020/12/14 15:51:36;;;;;;;;;;;;;;;;;;5029282;28;20020;-62
2020/12/14 15:54:03;;;;;;;;;;;;;;;;;;5028766;28;20297;-63
2020/12/14 15:56:29;;;;;;;;;;;;;;;;;;5026692;28;19935;-63
2020/12/14 15:58:56;;;;;;;;;;;;;;;;;;5019380;28;20313;-62
2020/12/14 16:01:22;;;;;;;;;;;;;;;;;;5030096;28;19925;-62
2020/12/14 16:03:50;;;;;;;;;;;;;;;;;;5032494;28;20440;-63
2020/12/14 16:06:17;;;;;;;;;;;;;;;;;;5027310;28;20408;-63
2020/12/14 16:08:43;;;;;;;;;;;;;;;;;;5020585;28;19971;-62
2020/12/14 16:11:10;;;;;;;;;;;;;;;;;;5015163;28;19926;-66
2020/12/14 16:13:36;;;;;;;;;;;;;;;;;;5025816;28;19931;-63
2020/12/14 16:16:04;;;;;;;;;;;;;;;;;;5029132;28;20019;-62
2020/12/14 16:18:30;;;;;;;;;;;;;;;;;;5030540;28;20435;-63
2020/12/14 16:20:57;;;;;;;;;;;;;;;;;;5025963;28;19932;-62
2020/12/14 16:23:23;;;;;;;;;;;;;;;;;;5025295;28;20375;-63
2020/12/14 16:25:50;;;;;;;;;;;;;;;;;;5031120;28;19972;-63
2020/12/14 16:28:17;;;;;;;;;;;;;;;;;;5026753;28;19948;-61
2020/12/14 16:30:43;;;;;;;;;;;;;;;;;;5025658;28;20035;-63
2020/12/14 16:33:10;;;;;;;;;;;;;;;;;;5030123;28;19959;-63
2020/12/14 16:35:36;;;;;;;;;;;;;;;;;;5030320;28;20399;-62
2020/12/14 16:38:03;;;;;;;;;;;;;;;;;;5028328;28;19938;-62
2020/12/14 16:40:29;;;;;;;;;;;;;;;;;;5018435;28;21118;-61